createdAt,value
2022-11-01T00:02:07.261Z,95370.13
2022-11-01T00:04:35.269Z,95369.66
2022-11-01T00:07:03.362Z,95369.66
2022-11-01T00:09:31.498Z,95373.34
2022-11-01T00:12:01.340Z,95369.66
2022-11-01T00:14:29.369Z,95378.59
2022-11-01T00:16:57.466Z,95378.09
2022-11-01T00:19:25.518Z,95373.63
2022-11-01T00:21:53.561Z,95377.31
2022-11-01T00:24:21.484Z,95374.44
2022-11-01T00:29:23.947Z,95397.00
2022-11-01T00:31:52.047Z,95403.75
2022-11-01T00:34:20.851Z,95400.44
2022-11-01T00:36:48.941Z,95409.84
2022-11-01T00:39:17.073Z,95417.13
2022-11-01T00:41:45.053Z,95405.84
2022-11-01T00:44:13.097Z,95413.66
2022-11-01T00:46:43.013Z,95410.94
2022-11-01T00:49:11.004Z,95404.09
2022-11-01T00:51:38.897Z,95407.56
2022-11-01T00:54:07.494Z,95407.41
2022-11-01T00:56:35.409Z,95402.50
2022-11-01T00:59:03.461Z,95405.28
2022-11-01T01:01:32.446Z,95411.44
2022-11-01T01:04:02.186Z,95415.09
2022-11-01T01:06:30.223Z,95434.53
2022-11-01T01:09:00.105Z,95440.22
2022-11-01T01:11:28.095Z,95457.59
2022-11-01T01:13:56.074Z,95478.28
2022-11-01T01:16:24.357Z,95486.25
2022-11-01T01:18:52.598Z,95480.69
2022-11-01T01:21:21.989Z,95486.34
2022-11-01T01:23:51.497Z,95501.06
2022-11-01T01:26:19.424Z,95513.16
2022-11-01T01:28:47.566Z,95537.00
2022-11-01T01:31:15.760Z,95551.19
2022-11-01T01:33:43.688Z,95554.84
2022-11-01T01:36:11.993Z,95558.47
2022-11-01T01:38:41.522Z,95537.06
2022-11-01T01:41:27.083Z,95548.69
2022-11-01T01:43:55.145Z,95560.00
2022-11-01T01:46:23.129Z,95558.41
2022-11-01T01:48:54.748Z,95575.91
2022-11-01T01:51:27.691Z,95586.31
2022-11-01T01:53:59.807Z,95611.56
2022-11-01T01:56:32.580Z,95609.63
2022-11-01T01:59:04.220Z,95611.22
2022-11-01T02:01:33.236Z,95611.69
2022-11-01T02:04:02.270Z,95619.00
2022-11-01T02:06:30.239Z,95606.91
2022-11-01T02:09:01.869Z,95597.44
2022-11-01T02:11:29.894Z,95599.03
2022-11-01T02:13:59.221Z,95597.19
2022-11-01T02:16:53.138Z,95589.53
2022-11-01T02:19:40.839Z,95575.84
2022-11-01T02:22:15.095Z,95586.13
2022-11-01T02:25:01.487Z,95585.09
2022-11-01T02:27:37.274Z,95570.13
2022-11-01T02:30:09.897Z,95558.81
2022-11-01T02:32:57.308Z,95560.75
2022-11-01T02:35:31.606Z,95555.97
2022-11-01T02:38:07.743Z,95559.63
2022-11-01T02:40:42.281Z,95568.06
2022-11-01T02:43:16.334Z,95571.25
2022-11-01T02:45:49.014Z,95569.19
2022-11-01T02:48:20.596Z,95581.31
2022-11-01T02:50:53.380Z,95576.06
2022-11-01T02:53:21.341Z,95588.16
2022-11-01T02:55:49.312Z,95577.19
2022-11-01T02:58:23.425Z,95577.19
2022-11-01T03:00:52.242Z,95576.16
2022-11-01T03:03:24.967Z,95585.63
2022-11-01T03:06:08.852Z,95581.72
2022-11-01T03:08:41.840Z,95583.56
2022-11-01T03:11:13.570Z,95585.16
2022-11-01T03:13:59.422Z,95569.38
2022-11-01T03:16:32.659Z,95577.03
2022-11-01T03:19:08.879Z,95577.66
2022-11-01T03:21:43.423Z,95578.69
2022-11-01T03:24:23.927Z,95577.06
2022-11-01T03:27:00.199Z,95573.44
2022-11-01T03:29:31.454Z,95579.25
2022-11-01T03:32:00.555Z,95580.28
2022-11-01T03:34:33.251Z,95572.72
2022-11-01T03:37:06.861Z,95578.78
2022-11-01T03:39:40.787Z,95579.81
2022-11-01T03:42:16.077Z,95579.25
2022-11-01T03:44:47.982Z,95582.91
2022-11-01T03:47:16.386Z,95575.47
2022-11-01T03:49:45.650Z,95568.53
2022-11-01T03:52:13.700Z,95583.16
2022-11-01T03:54:41.619Z,95579.06
2022-11-01T03:57:09.676Z,95570.81
2022-11-01T03:59:37.722Z,95583.41
2022-11-01T04:02:05.743Z,95577.03
2022-11-01T04:04:33.885Z,95582.28
2022-11-01T04:07:03.202Z,95582.03
2022-11-01T04:09:31.182Z,95582.75
2022-11-01T04:11:59.163Z,95579.09
2022-11-01T04:14:44.709Z,95583.88
2022-11-01T04:17:30.215Z,95591.66
2022-11-01T04:20:15.617Z,95585.75
2022-11-01T04:22:44.942Z,95591.31
2022-11-01T04:25:12.967Z,95592.44
2022-11-01T04:27:40.927Z,95595.41
2022-11-01T04:30:09.635Z,95593.25
2022-11-01T04:32:37.614Z,95602.63
2022-11-01T04:37:35.168Z,95604.91
2022-11-01T04:40:07.397Z,95597.72
2022-11-01T04:42:35.746Z,95607.41
2022-11-01T04:45:04.184Z,95589.84
2022-11-01T04:47:32.161Z,95604.00
2022-11-01T04:50:00.188Z,95595.56
2022-11-01T04:52:28.502Z,95602.88
2022-11-01T04:54:56.444Z,95599.78
2022-11-01T04:57:25.810Z,95596.69
2022-11-01T04:59:54.595Z,95608.78
2022-11-01T05:02:23.747Z,95608.44
2022-11-01T05:04:51.916Z,95608.13
2022-11-01T05:07:19.872Z,95609.03
2022-11-01T05:09:47.833Z,95614.28
2022-11-01T05:12:15.830Z,95599.66
2022-11-01T05:14:45.107Z,95610.50
2022-11-01T05:17:13.170Z,95609.16
2022-11-01T05:19:41.253Z,95603.31
2022-11-01T05:22:09.342Z,95602.75
2022-11-01T05:24:37.390Z,95610.63
2022-11-01T05:27:05.465Z,95613.38
2022-11-01T05:29:33.671Z,95614.28
2022-11-01T05:32:03.561Z,95622.16
2022-11-01T05:34:31.611Z,95625.91
2022-11-01T05:36:59.590Z,95638.00
2022-11-01T05:39:27.591Z,95618.63
2022-11-01T05:41:58.306Z,95620.22
2022-11-01T05:44:29.666Z,95622.59
2022-11-01T05:46:57.721Z,95623.19
2022-11-01T05:49:27.035Z,95624.00
2022-11-01T05:51:54.985Z,95620.00
2022-11-01T05:54:22.954Z,95616.13
2022-11-01T05:56:50.955Z,95614.72
2022-11-01T05:59:18.930Z,95611.88
2022-11-01T06:01:46.926Z,95610.19
2022-11-01T06:04:15.120Z,95601.28
2022-11-01T06:06:44.527Z,95600.81
2022-11-01T06:09:12.512Z,95606.06
2022-11-01T06:11:41.794Z,95604.00
2022-11-01T06:14:12.041Z,95609.25
2022-11-01T06:16:40.024Z,95596.03
2022-11-01T06:19:07.979Z,95592.84
2022-11-01T06:21:35.936Z,95590.66
2022-11-01T06:24:05.669Z,95587.47
2022-11-01T06:26:33.596Z,95582.78
2022-11-01T06:29:02.087Z,95586.44
2022-11-01T06:31:30.404Z,95590.22
2022-11-01T06:33:58.388Z,95598.06
2022-11-01T06:36:26.405Z,95598.06
2022-11-01T06:38:54.388Z,95610.19
2022-11-01T06:41:23.750Z,95619.88
2022-11-01T06:43:51.747Z,95629.13
2022-11-01T06:46:19.813Z,95632.78
2022-11-01T06:48:49.459Z,95632.78
2022-11-01T06:51:17.366Z,95634.03
2022-11-01T06:53:45.255Z,95631.16
2022-11-01T06:56:13.282Z,95628.31
2022-11-01T06:58:42.676Z,95633.91
2022-11-01T07:01:10.732Z,95626.16
2022-11-01T07:03:38.763Z,95622.50
2022-11-01T07:06:07.061Z,95633.44
2022-11-01T07:08:34.957Z,95621.34
2022-11-01T07:11:02.929Z,95637.09
2022-11-01T07:13:33.935Z,95629.78
2022-11-01T07:16:04.823Z,95633.44
2022-11-01T07:18:33.330Z,95648.75
2022-11-01T07:21:03.407Z,95656.41
2022-11-01T07:23:32.274Z,95660.47
2022-11-01T07:26:00.345Z,95663.81
2022-11-01T07:28:28.376Z,95667.00
2022-11-01T07:30:56.770Z,95678.66
2022-11-01T07:33:26.045Z,95673.28
2022-11-01T07:35:53.999Z,95682.53
2022-11-01T07:38:22.184Z,95684.13
2022-11-01T07:40:52.450Z,95674.31
2022-11-01T07:43:20.496Z,95682.75
2022-11-01T07:45:49.090Z,95689.03
2022-11-01T07:48:18.668Z,95687.88
2022-11-01T07:50:48.143Z,95685.25
2022-11-01T07:53:17.856Z,95694.06
2022-11-01T07:55:46.782Z,95692.00
2022-11-01T07:58:16.219Z,95703.06
2022-11-01T08:00:45.615Z,95703.16
2022-11-01T08:03:15.671Z,95720.38
2022-11-01T08:05:46.575Z,95717.84
2022-11-01T08:08:16.962Z,95716.38
2022-11-01T08:10:45.268Z,95721.06
2022-11-01T08:13:17.095Z,95721.97
2022-11-01T08:15:45.377Z,95724.00
2022-11-01T08:18:13.602Z,95730.84
2022-11-01T08:20:42.044Z,95729.38
2022-11-01T08:23:10.620Z,95728.81
2022-11-01T08:25:40.096Z,95741.25
2022-11-01T08:28:10.357Z,95735.81
2022-11-01T08:30:40.098Z,95740.72
2022-11-01T08:33:08.028Z,95743.69
2022-11-01T08:35:36.376Z,95742.34
2022-11-01T08:38:04.936Z,95748.25
2022-11-01T08:40:33.762Z,95740.50
2022-11-01T08:43:03.383Z,95744.28
2022-11-01T08:45:31.503Z,95755.34
2022-11-01T08:48:00.377Z,95750.09
2022-11-01T08:50:28.826Z,95747.59
2022-11-01T08:52:56.904Z,95756.06
2022-11-01T08:55:25.138Z,95764.50
2022-11-01T08:57:53.463Z,95769.28
2022-11-01T09:00:22.839Z,95761.53
2022-11-01T09:02:52.044Z,95765.63
2022-11-01T09:05:20.410Z,95780.16
2022-11-01T09:07:48.865Z,95785.44
2022-11-01T09:10:17.748Z,95777.75
2022-11-01T09:12:45.769Z,95777.75
2022-11-01T09:15:13.743Z,95788.25
2022-11-01T09:17:43.084Z,95780.16
2022-11-01T09:20:11.511Z,95784.59
2022-11-01T09:22:39.600Z,95795.34
2022-11-01T09:25:08.548Z,95781.63
2022-11-01T09:27:36.511Z,95788.50
2022-11-01T09:30:05.000Z,95780.81
2022-11-01T09:32:32.963Z,95788.03
2022-11-01T09:35:02.780Z,95781.88
2022-11-01T09:37:30.759Z,95790.44
2022-11-01T09:39:58.680Z,95793.28
2022-11-01T09:42:32.540Z,95793.50
2022-11-01T09:45:05.290Z,95799.94
2022-11-01T09:47:34.331Z,95795.34
2022-11-01T09:50:08.336Z,95783.91
2022-11-01T09:52:36.297Z,95791.00
2022-11-01T09:55:04.371Z,95788.72
2022-11-01T09:57:36.772Z,95788.25
2022-11-01T10:00:09.026Z,95784.72
2022-11-01T10:03:20.243Z,95792.16
2022-11-01T10:05:56.336Z,95789.63
2022-11-01T10:08:41.686Z,95791.69
2022-11-01T10:11:26.709Z,95794.56
2022-11-01T10:14:01.826Z,95789.63
2022-11-01T10:16:37.040Z,95783.25
2022-11-01T10:19:07.140Z,95785.06
2022-11-01T10:21:43.989Z,95784.38
2022-11-01T10:24:22.260Z,95785.50
2022-11-01T10:26:55.257Z,95779.69
2022-11-01T10:29:29.523Z,95779.53
2022-11-01T10:31:59.246Z,95783.41
2022-11-01T10:34:35.708Z,95783.94
2022-11-01T10:37:17.291Z,95774.91
2022-11-01T10:39:58.907Z,95783.41
2022-11-01T10:42:31.177Z,95783.97
2022-11-01T10:45:03.205Z,95778.81
2022-11-01T10:47:31.425Z,95790.38
2022-11-01T10:50:06.698Z,95783.66
2022-11-01T10:52:46.720Z,95789.63
2022-11-01T10:55:19.970Z,95790.28
2022-11-01T10:57:52.899Z,95793.03
2022-11-01T11:00:23.731Z,95788.91
2022-11-01T11:02:55.402Z,95790.06
2022-11-01T11:05:25.560Z,95780.19
2022-11-01T11:07:57.571Z,95783.47
2022-11-01T11:10:27.783Z,95778.56
2022-11-01T11:13:01.670Z,95779.69
2022-11-01T11:15:40.742Z,95775.56
2022-11-01T11:18:18.438Z,95773.66
2022-11-01T11:20:52.219Z,95767.00
2022-11-01T11:23:23.566Z,95767.19
2022-11-01T11:25:51.890Z,95761.00
2022-11-01T11:28:25.656Z,95766.28
2022-11-01T11:30:54.397Z,95757.34
2022-11-01T11:33:23.608Z,95763.16
2022-11-01T11:36:00.080Z,95757.72
2022-11-01T11:38:44.839Z,95753.47
2022-11-01T11:41:14.329Z,95762.06
2022-11-01T11:43:42.709Z,95759.50
2022-11-01T11:46:19.147Z,95762.31
2022-11-01T11:48:52.430Z,95760.94
2022-11-01T11:51:21.836Z,95756.97
2022-11-01T11:54:21.182Z,95753.28
2022-11-01T11:56:51.605Z,95757.59
2022-11-01T11:59:26.281Z,95753.19
2022-11-01T12:02:00.294Z,95750.81
2022-11-01T12:04:33.439Z,95745.25
2022-11-01T12:07:01.606Z,95747.22
2022-11-01T12:09:44.456Z,95747.06
2022-11-01T12:12:19.570Z,95749.59
2022-11-01T12:14:47.538Z,95743.16
2022-11-01T12:17:25.702Z,95734.13
2022-11-01T12:20:00.198Z,95733.91
2022-11-01T12:22:30.813Z,95742.28
2022-11-01T12:25:05.149Z,95732.78
2022-11-01T12:27:36.307Z,95723.69
2022-11-01T12:30:08.485Z,95738.06
2022-11-01T12:32:45.011Z,95732.41
2022-11-01T12:35:22.081Z,95728.09
2022-11-01T12:37:57.209Z,95727.53
2022-11-01T12:40:31.224Z,95714.13
2022-11-01T12:43:03.226Z,95710.06
2022-11-01T12:45:36.583Z,95709.59
2022-11-01T12:48:08.729Z,95714.59
2022-11-01T12:50:46.252Z,95709.97
2022-11-01T12:53:18.957Z,95703.75
2022-11-01T12:55:48.521Z,95702.66
2022-11-01T12:58:19.241Z,95707.13
2022-11-01T13:01:02.934Z,95708.06
2022-11-01T13:03:43.207Z,95702.78
2022-11-01T13:06:34.779Z,95700.50
2022-11-01T13:09:11.199Z,95695.63
2022-11-01T13:11:49.130Z,95698.97
2022-11-01T13:14:40.281Z,95696.53
2022-11-01T13:17:18.942Z,95692.22
2022-11-01T13:19:54.422Z,95695.72
2022-11-01T13:22:29.260Z,95698.41
2022-11-01T13:25:03.911Z,95688.97
2022-11-01T13:27:38.717Z,95696.47
2022-11-01T13:30:11.532Z,95694.41
2022-11-01T13:32:47.807Z,95693.34
2022-11-01T13:35:38.469Z,95687.66
2022-11-01T13:38:17.558Z,95698.00
2022-11-01T13:40:54.224Z,95691.91
2022-11-01T13:43:30.622Z,95687.28
2022-11-01T13:46:38.184Z,95681.00
2022-11-01T13:49:31.641Z,95687.41
2022-11-01T13:52:08.248Z,95685.47
2022-11-01T13:54:41.712Z,95682.88
2022-11-01T13:57:16.117Z,95684.09
2022-11-01T13:59:55.457Z,95681.41
2022-11-01T14:02:52.569Z,95684.78
2022-11-01T14:05:20.641Z,95685.53
2022-11-01T14:08:12.952Z,95684.56
2022-11-01T14:10:48.989Z,95683.47
2022-11-01T14:13:19.029Z,95693.44
2022-11-01T14:16:28.023Z,95692.41
2022-11-01T14:19:21.190Z,95693.81
2022-11-01T14:21:53.490Z,95695.94
2022-11-01T14:24:34.870Z,95705.59
2022-11-01T14:27:21.371Z,95697.63
2022-11-01T14:29:53.828Z,95695.63
2022-11-01T14:32:26.707Z,95697.72
2022-11-01T14:35:07.145Z,95692.34
2022-11-01T14:37:42.128Z,95687.84
2022-11-01T14:40:32.540Z,95699.00
2022-11-01T14:43:06.488Z,95696.69
2022-11-01T14:45:37.500Z,95697.63
2022-11-01T14:48:16.401Z,95699.72
2022-11-01T14:50:51.775Z,95704.78
2022-11-01T14:53:27.796Z,95711.03
2022-11-01T14:56:07.373Z,95703.47
2022-11-01T14:58:35.293Z,95703.78
2022-11-01T15:01:08.081Z,95701.69
2022-11-01T15:03:37.666Z,95712.09
2022-11-01T15:06:22.465Z,95707.25
2022-11-01T15:08:51.014Z,95706.75
2022-11-01T15:11:19.226Z,95714.16
2022-11-01T15:13:47.541Z,95712.66
2022-11-01T15:16:18.910Z,95712.16
2022-11-01T15:18:52.376Z,95721.19
2022-11-01T15:21:25.725Z,95719.56
2022-11-01T15:23:58.604Z,95723.13
2022-11-01T15:26:29.364Z,95718.81
2022-11-01T15:29:00.220Z,95724.06
2022-11-01T15:31:28.739Z,95725.50
2022-11-01T15:34:00.020Z,95723.78
2022-11-01T15:36:32.924Z,95723.72
2022-11-01T15:39:02.983Z,95727.41
2022-11-01T15:41:32.580Z,95726.94
2022-11-01T15:44:02.096Z,95719.66
2022-11-01T15:46:34.114Z,95727.38
2022-11-01T15:49:08.455Z,95723.91
2022-11-01T15:51:41.437Z,95724.41
2022-11-01T15:54:20.261Z,95720.69
2022-11-01T15:56:54.152Z,95715.41
2022-11-01T15:59:28.820Z,95717.47
2022-11-01T16:02:00.896Z,95725.13
2022-11-01T16:04:41.941Z,95726.94
2022-11-01T16:07:15.058Z,95727.44
2022-11-01T16:09:47.324Z,95729.47
2022-11-01T16:12:20.508Z,95726.41
2022-11-01T16:14:54.678Z,95722.25
2022-11-01T16:17:25.392Z,95728.34
2022-11-01T16:19:55.143Z,95730.13
2022-11-01T16:22:34.585Z,95730.31
2022-11-01T16:25:14.579Z,95738.34
2022-11-01T16:28:03.678Z,95735.19
2022-11-01T16:30:42.636Z,95732.88
2022-11-01T16:33:18.029Z,95739.03
2022-11-01T16:35:48.967Z,95738.84
2022-11-01T16:38:43.367Z,95738.72
2022-11-01T16:41:21.002Z,95743.78
2022-11-01T16:43:53.134Z,95746.34
2022-11-01T16:46:22.241Z,95739.41
2022-11-01T16:48:53.369Z,95749.22
2022-11-01T16:51:26.787Z,95750.28
2022-11-01T16:53:55.178Z,95752.34
2022-11-01T16:56:42.268Z,95754.88
2022-11-01T16:59:23.387Z,95760.41
2022-11-01T17:01:54.999Z,95765.84
2022-11-01T17:04:23.821Z,95763.13
2022-11-01T17:06:53.242Z,95766.66
2022-11-01T17:09:23.384Z,95772.94
2022-11-01T17:11:53.808Z,95775.34
2022-11-01T17:14:22.788Z,95760.72
2022-11-01T17:16:52.246Z,95781.75
2022-11-01T17:19:25.039Z,95780.59
2022-11-01T17:21:56.064Z,95784.25
2022-11-01T17:24:27.361Z,95785.53
2022-11-01T17:27:00.130Z,95786.00
2022-11-01T17:29:28.110Z,95787.84
2022-11-01T17:31:56.138Z,95790.94
2022-11-01T17:34:26.543Z,95798.25
2022-11-01T17:36:57.314Z,95791.97
2022-11-01T17:39:27.819Z,95793.00
2022-11-01T17:41:55.889Z,95788.22
2022-11-01T17:44:24.026Z,95786.63
2022-11-01T17:46:52.028Z,95795.06
2022-11-01T17:49:21.651Z,95791.50
2022-11-01T17:51:54.358Z,95785.47
2022-11-01T17:56:57.317Z,95790.16
2022-11-01T17:59:25.263Z,95797.38
2022-11-01T18:01:53.439Z,95790.53
2022-11-01T18:04:21.386Z,95784.94
2022-11-01T18:06:49.574Z,95792.59
2022-11-01T18:09:22.845Z,95799.44
2022-11-01T18:11:58.470Z,95800.00
2022-11-01T18:14:41.701Z,95796.25
2022-11-01T18:17:25.780Z,95795.09
2022-11-01T18:19:58.675Z,95795.09
2022-11-01T18:22:35.886Z,95801.97
2022-11-01T18:25:21.981Z,95808.34
2022-11-01T18:27:51.306Z,95807.56
2022-11-01T18:30:21.168Z,95804.69
2022-11-01T18:32:56.388Z,95799.91
2022-11-01T18:35:32.536Z,95807.22
2022-11-01T18:38:17.845Z,95799.19
2022-11-01T18:40:56.913Z,95802.88
2022-11-01T18:43:28.425Z,95793.94
2022-11-01T18:46:24.672Z,95798.06
2022-11-01T18:48:45.352Z,95783.22
2022-11-01T18:51:17.034Z,95790.09
2022-11-01T18:53:45.057Z,95796.13
2022-11-01T18:56:21.126Z,95790.22
2022-11-01T18:58:52.449Z,95799.69
2022-11-01T19:01:22.035Z,95796.94
2022-11-01T19:04:00.084Z,95799.44
2022-11-01T19:06:28.313Z,95794.19
2022-11-01T19:08:57.736Z,95798.16
2022-11-01T19:11:27.889Z,95792.91
2022-11-01T19:13:59.381Z,95788.69
2022-11-01T19:16:27.508Z,95788.69
2022-11-01T19:18:55.507Z,95792.34
2022-11-01T19:21:25.311Z,95793.47
2022-11-01T19:23:55.200Z,95800.31
2022-11-01T19:26:26.782Z,95799.19
2022-11-01T19:28:54.721Z,95806.50
2022-11-01T19:31:30.581Z,95797.25
2022-11-01T19:34:03.699Z,95806.94
2022-11-01T19:39:23.320Z,95804.31
2022-11-01T19:41:52.235Z,95805.34
2022-11-01T19:44:22.403Z,95801.69
2022-11-01T19:46:55.427Z,95808.66
2022-11-01T19:49:26.539Z,95811.53
2022-11-01T19:52:07.171Z,95814.00
2022-11-01T19:54:38.082Z,95811.25
2022-11-01T19:57:20.915Z,95811.72
2022-11-01T19:59:49.521Z,95808.19
2022-11-01T20:02:22.812Z,95809.44
2022-11-01T20:04:57.970Z,95805.22
2022-11-01T20:07:28.197Z,95811.09
2022-11-01T20:09:58.773Z,95813.97
2022-11-01T20:12:26.986Z,95818.06
2022-11-01T20:14:54.985Z,95821.72
2022-11-01T20:17:24.314Z,95810.06
2022-11-01T20:19:53.719Z,95818.63
2022-11-01T20:22:22.455Z,95817.81
2022-11-01T20:24:50.389Z,95818.47
2022-11-01T20:27:18.786Z,95824.03
2022-11-01T20:29:46.712Z,95826.06
2022-11-01T20:32:14.654Z,95816.84
2022-11-01T20:34:44.658Z,95823.69
2022-11-01T20:37:28.073Z,95825.72
2022-11-01T20:39:56.825Z,95827.78
2022-11-01T20:42:24.808Z,95834.63
2022-11-01T20:44:52.775Z,95832.47
2022-11-01T20:47:20.769Z,95838.25
2022-11-01T20:49:50.142Z,95828.63
2022-11-01T20:55:07.074Z,95843.94
2022-11-01T20:57:35.020Z,95838.25
2022-11-01T21:00:03.232Z,95846.25
2022-11-01T21:02:31.204Z,95846.84
2022-11-01T21:05:04.055Z,95842.97
2022-11-01T21:07:34.115Z,95852.66
2022-11-01T21:10:02.074Z,95849.47
2022-11-01T21:12:44.118Z,95855.94
2022-11-01T21:15:36.054Z,95859.38
2022-11-01T21:18:35.370Z,95859.94
2022-11-01T21:21:31.726Z,95858.06
2022-11-01T21:24:00.939Z,95859.66
2022-11-01T21:26:33.993Z,95870.16
2022-11-01T21:29:15.609Z,95863.31
2022-11-01T21:31:44.092Z,95854.41
2022-11-01T21:34:24.274Z,95859.25
2022-11-01T21:36:53.729Z,95860.03
2022-11-01T21:39:23.584Z,95864.19
2022-11-01T21:41:53.037Z,95868.41
2022-11-01T21:44:29.867Z,95863.59
2022-11-01T21:47:02.365Z,95863.59
2022-11-01T21:49:31.677Z,95867.25
2022-11-01T21:52:03.100Z,95860.31
2022-11-01T21:54:33.928Z,95864.75
2022-11-01T21:57:02.572Z,95867.94
2022-11-01T21:59:31.211Z,95870.00
2022-11-01T22:02:01.377Z,95868.13
2022-11-01T22:04:31.058Z,95870.94
2022-11-01T22:07:01.756Z,95876.41
2022-11-01T22:09:30.392Z,95881.09
2022-11-01T22:11:58.996Z,95883.56
2022-11-01T22:14:27.094Z,95887.44
2022-11-01T22:16:55.183Z,95889.72
2022-11-01T22:19:23.114Z,95891.75
2022-11-01T22:21:51.194Z,95894.59
2022-11-01T22:24:20.506Z,95892.16
2022-11-01T22:26:48.413Z,95897.84
2022-11-01T22:29:16.460Z,95899.88
2022-11-01T22:31:44.463Z,95903.53
2022-11-01T22:34:12.404Z,95895.81
2022-11-01T22:36:42.657Z,95897.72
2022-11-01T22:39:18.140Z,95904.41
2022-11-01T22:41:47.747Z,95902.38
2022-11-01T22:44:17.872Z,95898.72
2022-11-01T22:46:52.216Z,95906.00
2022-11-01T22:49:24.771Z,95905.44
2022-11-01T22:51:56.800Z,95908.06
2022-11-01T22:54:34.039Z,95909.00
2022-11-01T22:57:12.587Z,95910.38
2022-11-01T22:59:43.338Z,95912.56
2022-11-01T23:02:27.826Z,95918.38
2022-11-01T23:05:02.588Z,95917.97
2022-11-01T23:07:34.953Z,95913.88
2022-11-01T23:10:06.339Z,95921.16
2022-11-01T23:12:55.319Z,95921.16
2022-11-01T23:15:28.288Z,95919.56
2022-11-01T23:18:01.696Z,95923.78
2022-11-01T23:20:29.886Z,95921.16
2022-11-01T23:22:57.934Z,95922.34
2022-11-01T23:25:26.791Z,95919.13
2022-11-01T23:27:56.158Z,95919.13
2022-11-01T23:30:24.116Z,95922.34
2022-11-01T23:32:52.096Z,95912.78
2022-11-01T23:35:22.920Z,95921.00
2022-11-01T23:37:51.697Z,95915.34
2022-11-01T23:40:22.267Z,95913.13
2022-11-01T23:42:50.775Z,95921.44
2022-11-01T23:45:30.981Z,95918.69
2022-11-01T23:48:00.569Z,95929.19
2022-11-01T23:50:32.104Z,95925.25
2022-11-01T23:53:03.192Z,95931.78
2022-11-01T23:55:34.113Z,95921.75
2022-11-01T23:58:04.123Z,95926.97
